Terminal Aerodrome Forecast
Issued by NWS

Home | Current Version | Previous Version | Text Only | Print | Product List | Glossary On
Versions: 1 2 3 4 5 6 7 8 9 10 11 12 13 14 15 16 17 18 19 20 21
000
FTUS42 KMLB 200500
TAFSFB
TAF
KSFB 200533Z 2006/2106 31010KT P6SM OVC008
      TEMPO 2006/2008 SCT008 OVC013
     FM201500 34012KT P6SM BKN025
     FM201900 34013KT P6SM BKN035
     FM210200 35010KT P6SM SCT035=

USA.gov is the U.S. government's official web portal to all federal, state and local government web resources and services.